Pagrindinis puslapis
METAR-TAF:

METAR-TAF

Oro uostai :

Pantelerija, Italija

platuma: 36-49N, ilguma: 011-58E, Aukštis: 191 m

Dabartinis oras

Ataskaita buvo paskelbta 4 valandos ir 17 minutes, ne 18:50 UTC
Vėjas 3 kt iš Šiaurės/Šiaurės Rytų, svyruoja nuo Šiaurės ir Rytų
Temperatūra 26°C
Drėgmė 84%
Slėgis 1017 hPa
Matomumas 10 km arba daugiau
nėra debesų žemiau 1500 m ir nėra kamuolinių lietaus debesų

METAR: LICG 181850Z 03003KT 350V080 CAVOK 26/23 Q1017

Laikas: 01:07 (23:07 UTC)

Prognozė

Ataskaita buvo paskelbta 6 valandos ir 7 minutes, ne 17:00 UTC
Prognozė galioja nuo 18 metu 18 UTC su 19 metu 03 UTC
Vėjas 5 kt nuo kintamojo kryptimis
Matomumas 10 km arba daugiau
nėra debesų žemiau 1500 m ir nėra kamuolinių lietaus debesų

TAF: LICG 181700Z 1818/1903 VRB05KT CAVOK

Orai ataskaitas ir orų prognozės (METAR, TAF).

turimą stotys yra geltonos ir raudonos taškus žemėlapyje.

Perkelti pele per norėdami pamatyti stoties vardą.

Tada spustelėkite, norėdami matyti oro stebėjimo ir prognozės.

Norėdami pakeisti žemėlapį: spustelėkite ant žalios mygtukų su juodo kryžiaus žemyn,; žalią mygtuką su brūkšneliu, jei norite nutolinti; arba žalių rodyklių gretimoms žemėlapius.


METAR-TAF: